Accueil
METAR-TAF:

METAR-TAF

Aéroports :

Aéroport international de Ouagadougou

Ouagadougou, Burkina Faso

latitude: 12-21N, longitude: 001-31W, altitude: 316 m

Observation

Le bulletin a été fait il y a 41 minutes, à 21:00 UTC
Vent 4 kt de nord/nord-est
Température 29°C
Humidité 18%
Pression 1013 hPa
Visibilité: 4500 m
poussière généralisée

METAR: DFFD 282100Z 03004KT 4500 DU NSC 29/02 Q1013 BECMG 6000 NSW

Heure: 21:41 (21:41 UTC)

Prévision

Le bulletin a été fait il y a 4 heures et 41 minutes, à 17:00 UTC
Prévision valable du 28 à 18 UTC au 29 à 24 UTC
Vent 8 kt de nord/nord-est
Visibilité: 4000 m
poussière généralisée
Temporairement
du 29 à 06 UTC au 29 à 10 UTC
Visibilité: 2500 m
poussière généralisée

TAF: DFFD 281700Z 2818/2924 02008KT 4000 DU NSC TEMPO 2906/2910 2500 DU

Observations et prévisions météorologiques de plus de 4000 aéroports (messages METAR et TAF).

Les stations disponibles sont représentées par des disques jaunes et rouges sur la carte.

Passer la souris dessus pour voir le nom de la station.

Cliquer dessus pour voir les observations et prévisions météorologiques.

Pour changer de carte: cliquez sur les boutons verts avec une croix noire pour zoomer, sur le bouton vert avec un tiret pour effectuer un zoom arrière, ou sur les flèches vertes pour les cartes adjacentes.


METAR-TAF: